Terminal Aerodrome Forecast
Issued by NWS Albany, NY

Home | Current Version | Previous Version | Text Only | Print | Product List | Glossary On
Versions: 1 2 3 4 5 6 7 8 9 10 11 12
016
FTUS41 KALY 201739
TAFPOU
TAF
KPOU 201739Z 2018/2118 01008KT P6SM SKC
     FM202300 VRB03KT P6SM SKC
     FM211500 18004KT P6SM SCT150 BKN200=

USA.gov is the U.S. government's official web portal to all federal, state and local government web resources and services.